Time;durP1;ratioP1;P1;durP2;ratioP2;P2;SDS_P1;SDS_P2;PMS_P1;PMS_P2;Temp;Humidity;BMP_temperature;BMP_pressure;BME280_temperature;BME280_humidity;BME280_pressure;Samples;Min_cycle;Max_cycle;Signal;HPM_P1;HPM_P2
2022/05/13 00:00:15;;;;;;;11.77;5.97;;;;;;;-145.69;100.00;71535.72;5074472;28;20596;-75
2022/05/13 00:02:43;;;;;;;9.68;5.85;;;;;;;-145.69;100.00;71535.72;5074373;28;20256;-75
2022/05/13 00:05:11;;;;;;;8.30;5.68;;;;;;;-145.69;100.00;71535.72;5074533;28;20294;-75
2022/05/13 00:07:37;;;;;;;12.00;5.82;;;;;;;-145.69;100.00;71525.78;5073753;28;20620;-75
2022/05/13 00:10:06;;;;;;;10.25;6.32;;;;;;;-145.69;100.00;71527.75;5074443;28;20203;-75
2022/05/13 00:12:35;;;;;;;8.82;6.10;;;;;;;-145.69;100.00;71525.78;5074399;28;20206;-74
2022/05/13 00:15:03;;;;;;;11.55;5.90;;;;;;;-145.69;100.00;71533.72;5074049;28;20252;-75
2022/05/13 00:17:29;;;;;;;10.85;5.82;;;;;;;-145.69;100.00;71535.72;5074008;28;20207;-75
2022/05/13 00:19:57;;;;;;;10.65;6.30;;;;;;;-145.69;100.00;71541.69;5073358;28;20859;-75
2022/05/13 00:22:25;;;;;;;10.15;6.28;;;;;;;-145.69;100.00;71549.66;5073959;28;20282;-75
2022/05/13 00:24:53;;;;;;;7.97;5.53;;;;;;;-145.69;100.00;71543.69;5074197;28;20222;-75
2022/05/13 00:27:20;;;;;;;11.98;6.00;;;;;;;-145.69;100.00;71553.63;5073956;28;20234;-75
2022/05/13 00:29:46;;;;;;;8.75;5.95;;;;;;;-145.69;100.00;71559.59;5073946;28;20682;-75
2022/05/13 00:32:13;;;;;;;11.13;5.80;;;;;;;-145.69;100.00;71551.63;5074121;28;20199;-75
2022/05/13 00:34:39;;;;;;;10.15;5.97;;;;;;;-145.69;100.00;71557.59;5074150;28;20203;-74
2022/05/13 00:37:07;;;;;;;12.65;5.75;;;;;;;-145.69;100.00;71557.59;5073702;28;20191;-75
2022/05/13 00:39:33;;;;;;;9.65;7.22;;;;;;;-145.69;100.00;71555.63;5072973;28;20896;-74
2022/05/13 00:42:06;;;;;;;10.82;6.18;;;;;;;-145.69;100.00;71551.63;5073822;28;20206;-74
2022/05/13 00:44:33;;;;;;;7.18;5.40;;;;;;;-145.69;100.00;71541.69;5073979;28;20263;-75
2022/05/13 00:46:59;;;;;;;11.27;6.32;;;;;;;-145.69;100.00;71545.66;5073066;28;20438;-74
2022/05/13 00:49:26;;;;;;;12.98;6.30;;;;;;;-145.69;100.00;71549.66;5036290;28;1064959;-74
2022/05/13 00:51:52;;;;;;;8.35;5.47;;;;;;;-145.69;100.00;71553.63;5074507;28;20218;-74
2022/05/13 00:54:20;;;;;;;9.95;6.40;;;;;;;-145.69;100.00;71553.63;5074036;28;20198;-75
2022/05/13 00:56:48;;;;;;;9.27;5.95;;;;;;;-145.69;100.00;71557.59;5074308;28;20677;-75
2022/05/13 00:59:18;;;;;;;10.45;5.93;;;;;;;-145.69;100.00;71545.66;5074571;28;20199;-75
2022/05/13 01:01:45;;;;;;;11.52;6.30;;;;;;;-145.69;100.00;71549.66;5074072;28;20252;-74
2022/05/13 01:04:15;;;;;;;10.82;5.80;;;;;;;-145.69;100.00;71553.63;5074298;28;20248;-74
2022/05/13 01:06:49;;;;;;;8.93;5.90;;;;;;;-145.69;100.00;71547.66;5074484;28;20206;-74
2022/05/13 01:09:16;;;;;;;8.30;5.47;;;;;;;-145.69;100.00;71545.66;5074149;28;20647;-75
2022/05/13 01:11:46;;;;;;;9.40;6.28;;;;;;;-145.69;100.00;71547.66;5074464;28;20206;-75
2022/05/13 01:14:18;;;;;;;9.32;6.00;;;;;;;-145.69;100.00;71545.66;5074397;28;20198;-74
2022/05/13 01:19:29;;;;;;;11.45;6.00;;;;;;;-145.69;100.00;71533.72;5073331;28;20209;-75
2022/05/13 01:21:58;;;;;;;8.65;5.35;;;;;;;-145.69;100.00;71537.72;5073568;28;20281;-75
2022/05/13 01:24:25;;;;;;;8.50;5.93;;;;;;;-145.69;100.00;71537.72;5074093;28;20223;-75
2022/05/13 01:26:52;;;;;;;11.85;6.13;;;;;;;-145.69;100.00;71541.69;5073885;28;20214;-75
2022/05/13 01:29:19;;;;;;;10.00;6.05;;;;;;;-145.69;100.00;71545.66;5073677;28;20238;-75
2022/05/13 01:31:45;;;;;;;12.98;6.13;;;;;;;-145.69;100.00;71545.66;5074157;28;20202;-74
2022/05/13 01:34:13;;;;;;;8.68;6.03;;;;;;;-145.69;100.00;71551.63;5060414;28;20674;-75
2022/05/13 01:36:42;;;;;;;7.10;5.93;;;;;;;-145.69;100.00;71551.63;5053915;28;20200;-75
2022/05/13 01:39:10;;;;;;;10.82;6.22;;;;;;;-145.69;100.00;71561.59;5053409;28;20203;-75
2022/05/13 01:41:37;;;;;;;12.73;6.27;;;;;;;-145.69;100.00;71569.53;5053559;28;20196;-75
2022/05/13 01:44:04;;;;;;;11.20;5.67;;;;;;;-145.69;100.00;71573.53;5053795;28;20196;-75
2022/05/13 01:46:31;;;;;;;9.38;6.32;;;;;;;-145.69;100.00;71581.50;5053325;28;20269;-74
2022/05/13 01:48:58;;;;;;;13.05;6.68;;;;;;;-145.69;100.00;71565.56;5067839;28;20230;-75
2022/05/13 01:51:25;;;;;;;11.77;6.85;;;;;;;-145.69;100.00;71557.59;5072871;28;20226;-75
2022/05/13 01:53:52;;;;;;;12.55;6.85;;;;;;;-145.69;100.00;71565.56;5073633;28;20206;-75
2022/05/13 01:56:20;;;;;;;10.43;6.25;;;;;;;-145.69;100.00;71575.50;5073492;28;20203;-75
2022/05/13 01:58:46;;;;;;;10.32;6.57;;;;;;;-145.69;100.00;71581.50;5073458;28;20206;-75
2022/05/13 02:01:13;;;;;;;11.93;6.38;;;;;;;-145.69;100.00;71589.44;5073168;28;20198;-74
2022/05/13 02:03:44;;;;;;;11.40;6.85;;;;;;;-145.69;100.00;71585.47;5072863;28;20269;-75
2022/05/13 02:06:11;;;;;;;9.98;6.43;;;;;;;-145.69;100.00;71571.53;5073023;28;20218;-75
2022/05/13 02:08:38;;;;;;;9.27;6.53;;;;;;;-145.69;100.00;71565.56;5072921;28;20279;-75
2022/05/13 02:11:04;;;;;;;10.45;7.22;;;;;;;-145.69;100.00;71555.63;5073203;28;20252;-74
2022/05/13 02:13:33;;;;;;;13.07;6.85;;;;;;;-145.69;100.00;71549.66;5073063;28;20206;-74
2022/05/13 02:15:59;;;;;;;10.50;6.07;;;;;;;-145.69;100.00;71545.66;5073119;28;20280;-75
2022/05/13 02:18:26;;;;;;;16.83;6.78;;;;;;;-145.69;100.00;71541.69;5072971;28;20205;-75
2022/05/13 02:20:53;;;;;;;9.90;5.93;;;;;;;-145.69;100.00;71557.59;5072689;28;20596;-75
2022/05/13 02:23:20;;;;;;;12.90;7.10;;;;;;;-145.69;100.00;71553.63;5072881;28;20328;-75
2022/05/13 02:25:47;;;;;;;9.35;6.15;;;;;;;-145.69;100.00;71553.63;5072724;28;20293;-75
2022/05/13 02:28:13;;;;;;;12.48;6.40;;;;;;;-145.69;100.00;71555.63;5072647;28;20225;-75
2022/05/13 02:30:41;;;;;;;8.18;5.68;;;;;;;-145.69;100.00;71549.66;5072377;28;20688;-75
2022/05/13 02:33:08;;;;;;;10.77;6.65;;;;;;;-145.69;100.00;71537.72;5073108;28;20599;-75
2022/05/13 02:35:37;;;;;;;9.27;6.60;;;;;;;-145.69;100.00;71537.72;5072225;28;20657;-75
2022/05/13 02:38:04;;;;;;;10.30;6.72;;;;;;;-145.69;100.00;71529.75;5072904;28;20199;-76
2022/05/13 02:43:16;;;;;;;13.38;7.75;;;;;;;-145.69;100.00;71527.75;5052773;28;20206;-76
2022/05/13 02:45:45;;;;;;;16.15;7.20;;;;;;;-145.69;100.00;71527.75;5052626;28;20543;-75
2022/05/13 02:48:11;;;;;;;14.02;8.48;;;;;;;-145.69;100.00;71523.78;5051611;28;20466;-75
2022/05/13 02:50:39;;;;;;;19.77;7.57;;;;;;;-145.69;100.00;71535.72;5052286;28;20689;-76
2022/05/13 02:53:06;;;;;;;12.15;6.10;;;;;;;-145.69;100.00;71541.69;5052585;28;20649;-75
2022/05/13 02:55:33;;;;;;;18.67;7.20;;;;;;;-145.69;100.00;71539.69;5060164;28;20203;-76
2022/05/13 02:57:59;;;;;;;13.75;7.30;;;;;;;-145.69;100.00;71543.69;5072863;28;20213;-76
2022/05/13 03:00:26;;;;;;;12.70;7.35;;;;;;;-145.69;100.00;71541.69;5072495;28;20611;-75
2022/05/13 03:02:53;;;;;;;13.88;7.50;;;;;;;-145.69;100.00;71553.63;5071928;28;20199;-76
2022/05/13 03:05:20;;;;;;;15.05;8.48;;;;;;;-145.69;100.00;71547.66;5072745;28;20203;-75
2022/05/13 03:07:46;;;;;;;16.15;8.27;;;;;;;-145.69;100.00;71541.69;5072558;28;20306;-75
2022/05/13 03:10:13;;;;;;;12.95;7.93;;;;;;;-145.69;100.00;71541.69;5072426;28;20657;-76
2022/05/13 03:12:39;;;;;;;16.60;8.55;;;;;;;-145.69;100.00;71533.72;5072433;28;20191;-75
2022/05/13 03:15:07;;;;;;;14.50;8.48;;;;;;;-145.69;100.00;71529.75;5072541;28;20245;-75
2022/05/13 03:17:35;;;;;;;18.52;9.30;;;;;;;-145.69;100.00;71527.75;5072389;28;20447;-75
2022/05/13 03:20:05;;;;;;;16.10;9.10;;;;;;;-145.69;100.00;71523.78;5072498;28;20586;-76
2022/05/13 03:22:32;;;;;;;14.60;8.27;;;;;;;-145.69;100.00;71525.78;5072370;28;20256;-75
2022/05/13 03:24:59;;;;;;;17.25;9.25;;;;;;;-145.69;100.00;71529.75;5072614;28;20206;-75
2022/05/13 03:27:28;;;;;;;19.73;9.40;;;;;;;-145.69;100.00;71529.75;5072122;28;20692;-75
2022/05/13 03:29:54;;;;;;;15.55;8.45;;;;;;;-145.69;100.00;71533.72;5072423;28;20262;-75
2022/05/13 03:32:21;;;;;;;19.10;8.88;;;;;;;-145.69;100.00;71531.75;5072415;28;20210;-76
2022/05/13 03:34:49;;;;;;;18.25;8.07;;;;;;;-145.69;100.00;71529.75;5072466;28;20194;-75
2022/05/13 03:37:17;;;;;;;13.52;8.20;;;;;;;-145.69;100.00;71529.75;5072163;28;20202;-75
2022/05/13 03:39:44;;;;;;;18.27;8.60;;;;;;;-145.69;100.00;71523.78;5072478;28;20207;-75
2022/05/13 03:42:10;;;;;;;16.60;10.40;;;;;;;-145.69;100.00;71523.78;5072210;28;20256;-75
2022/05/13 03:44:37;;;;;;;19.02;11.98;;;;;;;-145.69;100.00;71525.78;5062997;28;20436;-75
2022/05/13 03:47:04;;;;;;;16.70;8.95;;;;;;;-145.69;100.00;71529.75;5055921;28;20203;-75
2022/05/13 03:49:30;;;;;;;15.77;8.05;;;;;;;-145.69;100.00;71523.78;5069761;28;20227;-76
2022/05/13 03:51:57;;;;;;;15.55;9.50;;;;;;;-145.69;100.00;71529.75;5074906;28;20503;-75
2022/05/13 03:54:25;;;;;;;19.35;9.27;;;;;;;-145.69;100.00;71533.72;5075826;28;20199;-76
2022/05/13 03:56:52;;;;;;;14.75;7.95;;;;;;;-145.69;100.00;71527.75;5075853;28;20202;-76
2022/05/13 03:59:19;;;;;;;14.25;8.43;;;;;;;-145.69;100.00;71525.78;5075875;28;20205;-75
2022/05/13 04:01:46;;;;;;;13.93;8.57;;;;;;;-145.69;100.00;71525.78;5075740;28;20199;-75
2022/05/13 04:04:20;;;;;;;13.80;8.48;;;;;;;-145.69;100.00;71519.81;5075032;28;20187;-75
2022/05/13 04:09:32;;;;;;;22.20;9.60;;;;;;;-145.69;100.00;71519.81;5075383;28;20233;-75
2022/05/13 04:17:28;;;;;;;14.70;9.23;;;;;;;-145.69;100.00;71509.84;5075393;28;20206;-75
2022/05/13 04:19:55;;;;;;;18.92;9.88;;;;;;;-145.69;100.00;71517.81;5075327;28;20221;-75
2022/05/13 04:22:24;;;;;;;15.77;9.45;;;;;;;-145.69;100.00;71519.81;5075150;28;20679;-75
2022/05/13 04:24:53;;;;;;;16.05;8.05;;;;;;;-145.69;100.00;71519.81;5075017;28;20604;-75
2022/05/13 04:27:23;;;;;;;11.98;7.80;;;;;;;-145.69;100.00;71515.81;5074677;28;20191;-75
2022/05/13 04:29:49;;;;;;;15.02;8.43;;;;;;;-145.69;100.00;71509.84;5075040;28;20786;-75
2022/05/13 04:32:16;;;;;;;17.20;9.50;;;;;;;-145.69;100.00;71501.88;5075132;28;20611;-75
2022/05/13 04:34:42;;;;;;;16.38;9.82;;;;;;;-145.69;100.00;71503.88;5075164;28;20211;-75
2022/05/13 04:37:09;;;;;;;15.35;8.80;;;;;;;-145.69;100.00;71503.88;5074927;28;20202;-75
2022/05/13 04:39:36;;;;;;;14.73;8.32;;;;;;;-145.69;100.00;71491.94;5074770;28;20209;-75
2022/05/13 04:44:50;;;;;;;16.23;9.48;;;;;;;-145.69;100.00;71493.94;5074432;28;20205;-75
2022/05/13 04:50:04;;;;;;;15.55;8.60;;;;;;;-145.69;100.00;71493.94;5074325;28;20241;-75
2022/05/13 04:52:30;;;;;;;13.55;8.75;;;;;;;-145.69;100.00;71493.94;5074792;28;20207;-75
2022/05/13 04:54:56;;;;;;;14.55;8.73;;;;;;;-145.69;100.00;71482.00;5073373;28;20669;-75
2022/05/13 04:57:24;;;;;;;16.35;9.20;;;;;;;-145.69;100.00;71474.03;5074353;28;20202;-75
2022/05/13 04:59:50;;;;;;;19.33;9.60;;;;;;;-145.69;100.00;71474.03;5074579;28;20098;-75
2022/05/13 05:02:19;;;;;;;15.60;9.02;;;;;;;-145.69;100.00;71462.09;5074441;28;20256;-75
2022/05/13 05:04:46;;;;;;;18.95;9.10;;;;;;;-145.69;100.00;71454.13;5073976;28;20202;-75
2022/05/13 05:07:12;;;;;;;16.00;8.90;;;;;;;-145.69;100.00;71442.19;5074273;28;20722;-75
2022/05/13 05:09:39;;;;;;;20.40;9.25;;;;;;;-145.69;100.00;71444.19;5074127;28;20233;-75
2022/05/13 05:12:07;;;;;;;15.13;9.45;;;;;;;-145.69;100.00;71434.22;5073964;28;20241;-75
2022/05/13 05:14:36;;;;;;;15.35;8.75;;;;;;;-145.69;100.00;71418.31;5074182;28;20199;-75
2022/05/13 05:17:02;;;;;;;14.77;8.40;;;;;;;-145.69;100.00;71422.28;5074121;28;20233;-75
2022/05/13 05:19:28;;;;;;;15.98;9.40;;;;;;;-145.69;100.00;71416.31;5074511;28;20248;-75
2022/05/13 05:21:55;;;;;;;14.40;8.40;;;;;;;-145.69;100.00;71418.31;5074249;28;20199;-75
2022/05/13 05:24:21;;;;;;;12.07;8.20;;;;;;;-145.69;100.00;71402.41;5074135;28;20551;-75
2022/05/13 05:26:48;;;;;;;14.45;7.75;;;;;;;-145.69;100.00;71378.50;5073661;28;20554;-75
2022/05/13 05:29:16;;;;;;;12.05;8.35;;;;;;;-145.69;100.00;71346.69;5073779;28;20222;-75
2022/05/13 05:31:44;;;;;;;11.95;8.40;;;;;;;-145.69;100.00;71344.69;5073820;28;20565;-75
2022/05/13 05:34:11;;;;;;;10.85;6.80;;;;;;;-145.69;100.00;71336.72;5073781;28;20203;-75
2022/05/13 05:36:38;;;;;;;8.18;6.43;;;;;;;-145.69;100.00;71340.72;5074051;28;20568;-75
2022/05/13 05:39:04;;;;;;;9.98;7.10;;;;;;;-145.69;100.00;71320.81;5073700;28;20676;-75
2022/05/13 05:41:31;;;;;;;9.93;7.13;;;;;;;-145.69;100.00;71342.69;5073639;28;20218;-75
2022/05/13 05:43:57;;;;;;;15.02;7.43;;;;;;;-145.69;100.00;71320.81;5073657;28;20207;-75
2022/05/13 05:46:24;;;;;;;8.57;6.50;;;;;;;-145.69;100.00;71306.88;5073504;28;20203;-75
2022/05/13 05:48:52;;;;;;;12.80;6.43;;;;;;;-145.69;100.00;71314.84;5073672;28;20289;-75
2022/05/13 05:51:18;;;;;;;7.70;6.05;;;;;;;-145.69;100.00;71322.81;5064082;28;20265;-75
2022/05/13 05:59:13;;;;;;;9.20;6.68;;;;;;;-145.69;100.00;71286.97;5069489;28;20221;-75
2022/05/13 06:01:39;;;;;;;10.73;6.68;;;;;;;-145.69;100.00;71281.00;5073385;28;20657;-75
2022/05/13 06:04:12;;;;;;;7.13;5.22;;;;;;;-145.69;100.00;71286.97;5073293;28;20199;-75
2022/05/13 06:06:38;;;;;;;11.43;5.95;;;;;;;-145.69;100.00;71324.78;5073021;28;20206;-75
2022/05/13 06:09:05;;;;;;;9.05;6.20;;;;;;;-145.69;100.00;71334.75;5073204;28;20226;-75
2022/05/13 06:11:31;;;;;;;8.68;5.93;;;;;;;-145.69;100.00;71330.75;5073194;28;20199;-75
2022/05/13 06:14:01;;;;;;;11.90;8.30;;;;;;;-145.69;100.00;71336.72;5072850;28;20531;-75
2022/05/13 06:16:29;;;;;;;9.18;6.72;;;;;;;-145.69;100.00;71322.81;5073235;28;20199;-75
2022/05/13 06:18:59;;;;;;;12.77;7.50;;;;;;;-145.69;100.00;71306.88;5073209;28;20240;-76
2022/05/13 06:21:31;;;;;;;12.85;6.93;;;;;;;-145.69;100.00;71318.81;5072640;28;20752;-75
2022/05/13 06:23:58;;;;;;;14.45;7.25;;;;;;;-145.69;100.00;71334.75;5073504;28;20199;-74
2022/05/13 06:26:24;;;;;;;13.20;7.78;;;;;;;-145.69;100.00;71332.75;5073226;28;20199;-75
2022/05/13 06:28:51;;;;;;;13.65;7.63;;;;;;;-145.69;100.00;71334.75;5073060;28;20198;-75
2022/05/13 06:31:18;;;;;;;16.83;7.15;;;;;;;-145.69;100.00;71348.66;5072785;28;20252;-75
2022/05/13 06:33:45;;;;;;;14.10;7.63;;;;;;;-145.69;100.00;71334.75;5072983;28;20240;-74
2022/05/13 06:36:13;;;;;;;9.25;6.57;;;;;;;-145.69;100.00;71322.81;5072867;28;20195;-75
2022/05/13 06:38:41;;;;;;;18.45;6.88;;;;;;;-145.69;100.00;71322.81;5072932;28;20248;-75
2022/05/13 06:41:08;;;;;;;14.02;7.18;;;;;;;-145.69;100.00;71332.75;5073046;28;20199;-75
2022/05/13 06:43:34;;;;;;;9.45;6.38;;;;;;;-145.69;100.00;71334.75;5072985;28;20261;-75
2022/05/13 06:46:01;;;;;;;16.33;7.88;;;;;;;-145.69;100.00;71332.75;5072717;28;20191;-75
2022/05/13 06:48:27;;;;;;;11.07;6.68;;;;;;;-145.69;100.00;71322.81;5072851;28;20252;-75
2022/05/13 06:50:54;;;;;;;12.63;6.43;;;;;;;-145.69;100.00;71318.81;5072411;28;20242;-76
2022/05/13 06:53:23;;;;;;;15.07;7.20;;;;;;;-145.69;100.00;71320.81;5072598;28;20302;-75
2022/05/13 06:55:51;;;;;;;11.90;6.78;;;;;;;-145.69;100.00;71326.78;5072856;28;20207;-75
2022/05/13 06:58:18;;;;;;;15.23;7.55;;;;;;;-145.69;100.00;71318.81;5072728;28;20199;-75
2022/05/13 07:00:45;;;;;;;13.98;6.75;;;;;;;-145.69;100.00;71316.84;5072744;28;20206;-75
2022/05/13 07:03:15;;;;;;;11.98;7.28;;;;;;;-145.69;100.00;71310.84;5072084;28;20472;-75
2022/05/13 07:05:45;;;;;;;8.30;6.10;;;;;;;-145.69;100.00;71290.97;5072491;28;20198;-75
2022/05/13 07:08:12;;;;;;;12.05;5.88;;;;;;;-145.69;100.00;71306.88;5072829;28;20224;-75
2022/05/13 07:10:40;;;;;;;14.10;7.05;;;;;;;-145.69;100.00;71338.72;5072577;28;20241;-75
2022/05/13 07:13:08;;;;;;;15.88;10.23;;;;;;;-145.69;100.00;71390.47;5072555;28;20202;-77
2022/05/13 07:15:37;;;;;;;7.80;5.93;;;;;;;-145.69;100.00;71472.03;5072686;28;20207;-77
2022/05/13 07:18:04;;;;;;;14.35;5.60;;;;;;;-145.69;100.00;71501.88;5073732;28;20669;-75
2022/05/13 07:20:31;;;;;;;7.07;5.68;;;;;;;-145.69;100.00;71513.81;5076629;28;20206;-76
2022/05/13 07:22:58;;;;;;;9.05;4.65;;;;;;;-145.69;100.00;71541.69;5076399;28;20207;-77
2022/05/13 07:25:27;;;;;;;7.30;4.28;;;;;;;-145.69;100.00;71549.66;5076113;28;20211;-75
2022/05/13 07:27:54;;;;;;;5.95;3.10;;;;;;;-145.69;100.00;71567.56;5076264;28;20218;-75
2022/05/13 07:30:22;;;;;;;10.02;4.20;;;;;;;-145.69;100.00;71581.50;5076201;28;20230;-75
2022/05/13 07:32:48;;;;;;;7.75;4.50;;;;;;;-145.69;100.00;71595.41;5076079;28;20217;-76
2022/05/13 07:35:14;;;;;;;8.07;4.28;;;;;;;-145.69;100.00;71605.38;5075625;28;20750;-76
2022/05/13 07:37:41;;;;;;;8.18;4.38;;;;;;;-145.69;100.00;71603.38;5076225;28;20205;-76
2022/05/13 07:42:52;;;;;;;10.43;3.97;;;;;;;-145.69;100.00;71629.25;5076078;28;20201;-76
2022/05/13 07:45:19;;;;;;;7.72;4.45;;;;;;;-145.69;100.00;71617.31;5075930;28;20264;-76
2022/05/13 07:47:47;;;;;;;10.60;4.70;;;;;;;-145.69;100.00;71607.34;5076074;28;20198;-76
2022/05/13 07:50:15;;;;;;;6.05;3.85;;;;;;;-145.69;100.00;71617.31;5075301;28;20262;-77
2022/05/13 07:52:42;;;;;;;6.38;4.18;;;;;;;-145.69;100.00;71621.28;5074786;28;20846;-76
2022/05/13 07:55:10;;;;;;;7.32;3.40;;;;;;;-145.69;100.00;71645.16;5075772;28;20195;-76
2022/05/13 07:57:39;;;;;;;5.18;2.90;;;;;;;-145.69;100.00;71647.16;5075284;28;20569;-76
2022/05/13 08:00:27;;;;;;;9.80;3.97;;;;;;;-145.69;100.00;71659.09;5070782;28;20674;-76
2022/05/13 08:02:58;;;;;;;4.13;2.63;;;;;;;-145.69;100.00;71679.00;5075649;28;20199;-77
2022/05/13 08:05:27;;;;;;;9.10;4.28;;;;;;;-145.69;100.00;71688.94;5074955;28;20252;-76
2022/05/13 08:08:02;;;;;;;16.98;4.72;;;;;;;-145.69;100.00;71716.81;5075383;28;20281;-75
2022/05/13 08:10:32;;;;;;;11.03;4.20;;;;;;;-145.69;100.00;71732.72;5075198;28;20711;-76
2022/05/13 08:12:58;;;;;;;16.60;4.38;;;;;;;-145.69;100.00;71744.66;5075370;28;20699;-76
2022/05/13 08:15:25;;;;;;;10.10;4.00;;;;;;;-145.69;100.00;71744.66;5075475;28;20202;-76
2022/05/13 08:17:52;;;;;;;10.18;3.88;;;;;;;-145.69;100.00;71746.66;5075362;28;20206;-76
2022/05/13 08:20:20;;;;;;;9.47;4.80;;;;;;;-145.69;100.00;71762.56;5075199;28;20715;-76
2022/05/13 08:22:46;;;;;;;19.23;5.35;;;;;;;-145.69;100.00;71760.59;5074880;28;20705;-76
2022/05/13 08:25:13;;;;;;;13.35;5.50;;;;;;;-145.69;100.00;71764.56;5075330;28;20207;-76
2022/05/13 08:27:40;;;;;;;16.52;5.38;;;;;;;-145.69;100.00;71752.63;5075074;28;20676;-76
2022/05/13 08:30:09;;;;;;;16.45;5.57;;;;;;;-145.69;100.00;71744.66;5074846;28;20223;-76
2022/05/13 08:32:41;;;;;;;10.93;4.70;;;;;;;-145.69;100.00;71732.72;5075095;28;20210;-77
2022/05/13 08:35:08;;;;;;;13.98;5.63;;;;;;;-145.69;100.00;71732.72;5074902;28;20199;-76
2022/05/13 08:37:42;;;;;;;12.90;5.03;;;;;;;-145.69;100.00;71724.75;5074619;28;20198;-76
2022/05/13 08:40:23;;;;;;;11.35;4.93;;;;;;;-145.69;100.00;71736.72;5074794;28;20680;-76
2022/05/13 08:42:52;;;;;;;9.07;5.03;;;;;;;-145.69;100.00;71716.81;5074948;28;20201;-76
2022/05/13 08:45:20;;;;;;;5.75;4.03;;;;;;;-145.69;100.00;71696.91;5074904;28;20203;-76
2022/05/13 08:47:53;;;;;;;14.80;4.88;;;;;;;-145.69;100.00;71677.00;5074506;28;20542;-77
2022/05/13 08:50:26;;;;;;;10.18;4.72;;;;;;;-145.69;100.00;71657.09;5074596;28;20243;-77
2022/05/13 08:53:09;;;;;;;10.30;4.60;;;;;;;-145.69;100.00;71641.19;5074575;28;20248;-77
2022/05/13 08:55:42;;;;;;;12.00;4.70;;;;;;;-145.69;100.00;71629.25;5067098;28;20203;-77
2022/05/13 08:58:13;;;;;;;7.72;4.20;;;;;;;-145.69;100.00;71607.34;5054487;28;20210;-77
2022/05/13 09:00:42;;;;;;;10.02;4.60;;;;;;;-145.69;100.00;71611.34;5053365;28;20435;-77
2022/05/13 09:03:23;;;;;;;11.32;4.35;;;;;;;-145.69;100.00;71597.41;5054363;28;20249;-77
2022/05/13 09:05:53;;;;;;;9.05;3.83;;;;;;;-145.69;100.00;71569.53;5055639;28;20200;-77
2022/05/13 09:08:31;;;;;;;9.40;3.78;;;;;;;-145.69;100.00;71535.72;5061167;28;20194;-78
2022/05/13 09:11:07;;;;;;;11.57;4.13;;;;;;;-145.69;100.00;71480.00;5074389;28;20230;-80
2022/05/13 09:13:42;;;;;;;11.32;4.30;;;;;;;-145.69;100.00;71436.22;5074350;28;20202;-78
2022/05/13 09:16:10;;;;;;;10.00;4.00;;;;;;;-145.69;100.00;71390.47;5074299;28;20209;-79
2022/05/13 09:18:41;;;;;;;11.65;3.70;;;;;;;-145.69;100.00;71310.84;5074010;28;20206;-79
2022/05/13 09:21:14;;;;;;;7.78;3.22;;;;;;;-145.69;100.00;71283.00;5074072;28;20644;-82
2022/05/13 09:23:42;;;;;;;27.30;4.13;;;;;;;-145.69;100.00;71394.44;5073650;28;20664;-80
2022/05/13 09:26:13;;;;;;;6.47;2.72;;;;;;;-145.69;100.00;71410.34;5074159;28;20206;-80
2022/05/13 09:29:03;;;;;;;6.53;2.85;;;;;;;-145.69;100.00;71416.31;5074250;28;20199;-79
2022/05/13 09:31:31;;;;;;;6.65;3.20;;;;;;;-145.69;100.00;71380.50;5073766;28;20230;-80
2022/05/13 09:34:01;;;;;;;10.25;3.03;;;;;;;-145.69;100.00;71376.53;5073993;28;20230;-81
2022/05/13 09:36:35;;;;;;;8.38;3.10;;;;;;;-145.69;100.00;71426.28;5073798;28;20699;-80
2022/05/13 09:39:19;;;;;;;15.38;3.95;;;;;;;-145.69;100.00;71456.13;5073264;28;20198;-79
2022/05/13 09:41:45;;;;;;;8.45;4.00;;;;;;;-145.69;100.00;71470.06;5073087;28;20729;-79
2022/05/13 09:44:14;;;;;;;10.27;4.20;;;;;;;-145.69;100.00;71434.22;5074023;28;20210;-79
2022/05/13 09:46:43;;;;;;;12.38;4.53;;;;;;;-145.69;100.00;71448.16;5073973;28;20202;-79
2022/05/13 09:49:20;;;;;;;7.35;3.83;;;;;;;-145.69;100.00;71442.19;5073524;28;20198;-80
2022/05/13 09:51:58;;;;;;;13.40;4.43;;;;;;;-145.69;100.00;71330.75;5073540;28;20236;-79
2022/05/13 09:54:31;;;;;;;10.68;3.45;;;;;;;-145.69;100.00;71247.19;5073365;28;20657;-79
2022/05/13 09:57:09;;;;;;;8.98;3.42;;;;;;;-145.69;100.00;71195.47;5073280;28;20285;-79
2022/05/13 09:59:39;;;;;;;7.82;3.22;;;;;;;-145.69;100.00;71117.84;5070543;28;20221;-79
2022/05/13 10:02:18;;;;;;;9.35;3.22;;;;;;;-145.69;100.00;71113.88;5073318;28;20206;-79
2022/05/13 10:04:49;;;;;;;11.90;3.08;;;;;;;-145.69;100.00;71336.72;5072846;28;20208;-79
2022/05/13 10:07:20;;;;;;;9.63;3.38;;;;;;;-145.69;100.00;71332.75;5073546;28;20198;-79
2022/05/13 10:15:45;;;;;;;11.35;3.75;;;;;;;-145.69;100.00;71310.84;5025433;28;20206;-79
2022/05/13 10:18:18;;;;;;;8.65;3.40;;;;;;;-145.69;100.00;71302.91;5072769;28;20622;-79
2022/05/13 10:20:46;;;;;;;9.68;3.45;;;;;;;-145.69;100.00;71374.53;5073216;28;20213;-79
2022/05/13 10:23:18;;;;;;;8.32;3.30;;;;;;;-145.69;100.00;71318.81;5073519;28;20214;-79
2022/05/13 10:25:55;;;;;;;6.35;2.95;;;;;;;-145.69;100.00;71265.09;5073093;28;20203;-79
2022/05/13 10:28:27;;;;;;;7.43;2.50;;;;;;;-145.69;100.00;71318.81;5072975;28;20210;-79
2022/05/13 10:31:02;;;;;;;8.93;3.47;;;;;;;-145.69;100.00;71360.59;5072923;28;20581;-80
2022/05/13 10:33:34;;;;;;;9.23;3.58;;;;;;;-145.69;100.00;71366.56;5073022;28;20202;-79
2022/05/13 10:36:06;;;;;;;7.07;3.28;;;;;;;-145.69;100.00;71358.63;5072665;28;20221;-79
2022/05/13 10:38:39;;;;;;;10.98;3.90;;;;;;;-145.69;100.00;71374.53;5073121;28;20227;-78
2022/05/13 10:41:19;;;;;;;13.25;3.72;;;;;;;-145.69;100.00;71388.47;5072955;28;20203;-79
2022/05/13 10:43:52;;;;;;;9.48;3.55;;;;;;;-145.69;100.00;71362.59;5073009;28;20233;-78
2022/05/13 10:46:24;;;;;;;10.18;3.10;;;;;;;-145.69;100.00;71380.50;5072785;28;20203;-78
2022/05/13 10:48:54;;;;;;;12.30;3.78;;;;;;;-145.69;100.00;71352.66;5072999;28;20198;-78
2022/05/13 10:51:26;;;;;;;10.93;3.38;;;;;;;-145.69;100.00;71390.47;5072849;28;20235;-78
2022/05/13 10:54:09;;;;;;;13.55;3.70;;;;;;;-145.69;100.00;71382.50;5076933;28;20230;-77
2022/05/13 10:56:54;;;;;;;8.20;3.58;;;;;;;-145.69;100.00;71404.38;5076930;28;20199;-78
2022/05/13 10:59:35;;;;;;;5.85;3.05;;;;;;;-145.69;100.00;71396.44;5077080;28;20207;-78
2022/05/13 11:02:14;;;;;;;10.32;3.28;;;;;;;-145.69;100.00;71388.47;5076985;28;20209;-79
2022/05/13 11:04:48;;;;;;;11.35;3.30;;;;;;;-145.69;100.00;71418.31;5076456;28;20235;-78
2022/05/13 11:07:22;;;;;;;8.93;3.83;;;;;;;-145.69;100.00;71358.63;5076622;28;20208;-78
2022/05/13 11:09:59;;;;;;;16.50;3.80;;;;;;;-145.69;100.00;71279.03;5076900;28;20210;-78
2022/05/13 11:12:36;;;;;;;11.05;3.17;;;;;;;-145.69;100.00;71237.25;5076683;28;20232;-78
2022/05/13 11:15:16;;;;;;;10.63;3.50;;;;;;;-145.69;100.00;71259.13;5076857;28;20206;-78
2022/05/13 11:17:50;;;;;;;9.63;3.25;;;;;;;-145.69;100.00;71221.31;5076215;28;20202;-78
2022/05/13 11:20:28;;;;;;;6.88;3.10;;;;;;;-145.69;100.00;71219.34;5076151;28;20734;-78
2022/05/13 11:23:06;;;;;;;10.50;3.45;;;;;;;-145.69;99.33;71147.69;5076420;28;20202;-78
2022/05/13 11:25:55;;;;;;;10.13;3.03;;;;;;;-145.69;100.00;71245.19;5076328;28;20565;-78
2022/05/13 11:28:46;;;;;;;13.57;3.53;;;;;;;-145.69;99.84;71306.88;5076189;28;20564;-77
2022/05/13 11:31:40;;;;;;;11.98;3.35;;;;;;;-145.69;100.00;71322.81;5076148;28;20692;-78
2022/05/13 11:34:19;;;;;;;10.63;3.20;;;;;;;-145.69;100.00;71314.84;5076137;28;20621;-78
2022/05/13 11:36:55;;;;;;;9.07;3.33;;;;;;;-145.69;100.00;71241.22;5075944;28;20206;-78
2022/05/13 11:39:44;;;;;;;7.28;3.00;;;;;;;-145.69;100.00;71237.25;5076117;28;20533;-78
2022/05/13 11:45:35;;;;;;;8.95;3.08;;;;;;;-145.69;93.36;71183.50;5073735;28;20244;-78
2022/05/13 11:48:19;;;;;;;10.57;3.25;;;;;;;-145.69;92.90;71163.63;5075856;28;20225;-79
2022/05/13 11:50:46;;;;;;;10.20;3.25;;;;;;;-145.69;94.14;71129.78;5075166;28;20230;-78